Time;durP1;ratioP1;P1;durP2;ratioP2;P2;SDS_P1;SDS_P2;PMS_P1;PMS_P2;Temp;Humidity;BMP_temperature;BMP_pressure;BME280_temperature;BME280_humidity;BME280_pressure;Samples;Min_cycle;Max_cycle;Signal;HPM_P1;HPM_P2
2021/12/29 00:00:54;;;;;;;5.65;3.42;;;;;;;8.61;86.65;99906.56;5106532;28;20055;-68
2021/12/29 00:03:21;;;;;;;5.63;3.08;;;;;;;8.60;86.49;99910.09;5108986;27;20079;-71
2021/12/29 00:05:47;;;;;;;8.15;3.53;;;;;;;8.58;86.57;99914.56;5112812;28;20135;-72
2021/12/29 00:08:14;;;;;;;9.52;3.38;;;;;;;8.58;86.65;99918.94;5110145;27;20097;-74
2021/12/29 00:10:42;;;;;;;10.77;3.47;;;;;;;8.59;86.40;99929.41;5115046;28;20036;-73
2021/12/29 00:13:08;;;;;;;8.38;3.42;;;;;;;8.58;86.51;99938.22;5116115;27;20056;-74
2021/12/29 00:15:36;;;;;;;7.20;3.30;;;;;;;8.60;86.42;99940.78;5107694;28;20040;-74
2021/12/29 00:18:03;;;;;;;6.18;3.50;;;;;;;8.61;86.59;99942.50;5112255;28;20123;-74
2021/12/29 00:20:31;;;;;;;7.05;2.80;;;;;;;8.62;86.46;99939.78;5109419;28;20557;-72
2021/12/29 00:23:04;;;;;;;9.18;3.70;;;;;;;8.60;86.62;99953.91;5113425;27;20055;-75
2021/12/29 00:25:32;;;;;;;8.10;3.65;;;;;;;8.60;86.46;99967.88;5110759;28;20044;-75
2021/12/29 00:28:00;;;;;;;8.90;3.47;;;;;;;8.59;86.61;99974.09;5102438;28;20054;-76
2021/12/29 00:30:28;;;;;;;9.10;3.25;;;;;;;8.62;86.64;99983.63;5100506;28;20848;-77
2021/12/29 00:32:57;;;;;;;11.13;3.78;;;;;;;8.62;86.36;99994.13;5116232;27;20048;-76
2021/12/29 00:35:44;;;;;;;6.90;3.40;;;;;;;8.62;86.37;99999.38;5112690;28;20098;-77
2021/12/29 00:38:29;;;;;;;5.97;3.38;;;;;;;8.61;86.54;100006.38;5099427;28;20459;-70
2021/12/29 00:41:16;;;;;;;7.78;3.15;;;;;;;8.61;86.27;100010.81;5107620;28;20155;-77
2021/12/29 00:43:52;;;;;;;8.68;3.60;;;;;;;8.60;86.40;100027.47;5111040;28;20468;-74
2021/12/29 00:46:56;;;;;;;6.88;3.67;;;;;;;8.62;86.05;100021.25;5113795;28;20057;-77
2021/12/29 00:49:29;;;;;;;7.47;3.38;;;;;;;8.64;85.95;100022.06;5103101;28;20044;-71
2021/12/29 00:51:56;;;;;;;6.30;3.90;;;;;;;8.65;86.08;100028.16;5102622;28;20520;-77
2021/12/29 00:54:23;;;;;;;8.15;4.28;;;;;;;8.65;86.01;100041.28;5115295;27;20079;-77
2021/12/29 00:56:50;;;;;;;9.35;4.38;;;;;;;8.65;86.05;100033.41;5106261;28;20048;-75
2021/12/29 00:59:19;;;;;;;4.88;3.72;;;;;;;8.67;85.88;100037.72;5112993;27;20048;-75
2021/12/29 01:01:48;;;;;;;9.35;4.85;;;;;;;8.70;85.77;100042.84;5113096;28;20037;-75
2021/12/29 01:04:17;;;;;;;6.38;4.15;;;;;;;8.71;85.77;100056.88;5115563;27;20044;-78
2021/12/29 01:06:44;;;;;;;10.35;4.72;;;;;;;8.70;85.87;100066.50;5115192;27;20046;-71
2021/12/29 01:09:11;;;;;;;12.85;4.63;;;;;;;8.68;85.92;100076.22;5113854;28;20528;-76
2021/12/29 01:11:38;;;;;;;6.50;3.75;;;;;;;8.71;85.86;100083.13;5115230;27;20493;-76
2021/12/29 01:14:07;;;;;;;7.50;4.93;;;;;;;8.68;85.92;100078.84;5108058;28;20462;-77
2021/12/29 01:19:14;;;;;;;10.18;4.50;;;;;;;8.67;86.26;100092.03;5114902;27;20044;-76
2021/12/29 01:21:45;;;;;;;7.90;4.32;;;;;;;8.66;86.24;100101.69;5109953;28;20083;-76
2021/12/29 01:24:13;;;;;;;9.55;4.35;;;;;;;8.65;86.35;100107.84;5114646;27;20047;-75
2021/12/29 01:26:43;;;;;;;12.10;4.10;;;;;;;8.63;86.40;100114.09;5115404;27;20048;-72
2021/12/29 01:29:12;;;;;;;6.65;3.70;;;;;;;8.62;86.47;100128.13;5117264;27;20055;-71
2021/12/29 01:31:43;;;;;;;10.82;3.85;;;;;;;8.63;86.49;100137.72;5109127;27;20052;-69
2021/12/29 01:34:12;;;;;;;8.93;3.72;;;;;;;8.62;86.65;100139.47;5115962;27;20130;-70
2021/12/29 01:36:39;;;;;;;11.85;4.35;;;;;;;8.63;86.53;100156.13;5117693;27;20040;-72
2021/12/29 01:39:12;;;;;;;7.28;4.55;;;;;;;8.61;86.67;100147.44;5115543;27;20693;-70
2021/12/29 01:41:39;;;;;;;9.07;4.65;;;;;;;8.61;86.87;100160.56;5116898;27;20135;-75
2021/12/29 01:44:08;;;;;;;9.38;5.10;;;;;;;8.59;86.67;100167.63;5113451;27;20048;-74
2021/12/29 01:46:36;;;;;;;9.13;5.25;;;;;;;8.59;86.92;100165.88;5115627;27;20044;-73
2021/12/29 01:49:04;;;;;;;10.90;5.25;;;;;;;8.60;86.89;100174.59;5116669;27;20055;-73
2021/12/29 01:51:31;;;;;;;9.60;4.43;;;;;;;8.60;86.91;100187.75;5116353;27;20040;-67
2021/12/29 01:54:16;;;;;;;14.27;5.53;;;;;;;8.60;86.96;100185.97;5117463;28;20517;-71
2021/12/29 01:56:45;;;;;;;;;;;;;;;8.61;86.94;100189.47;5115354;28;20036;-66
2021/12/29 01:59:15;;;;;;;10.00;5.45;;;;;;;8.62;87.05;100185.94;5116425;27;19928;-68
2021/12/29 02:01:43;;;;;;;10.13;5.32;;;;;;;8.60;87.03;100182.50;5117761;27;20040;-73
2021/12/29 02:04:10;;;;;;;8.23;5.55;;;;;;;8.59;87.14;100186.91;5115110;27;20048;-67
2021/12/29 02:06:37;;;;;;;11.40;5.88;;;;;;;8.59;87.15;100184.28;5107652;28;20094;-73
2021/12/29 02:09:06;;;;;;;10.85;5.35;;;;;;;8.58;87.23;100186.94;5116191;27;20201;-74
2021/12/29 02:11:37;;;;;;;11.93;6.75;;;;;;;8.59;87.06;100196.53;5117398;27;20036;-73
2021/12/29 02:14:07;;;;;;;8.35;5.53;;;;;;;8.57;87.16;100193.97;5108923;27;20499;-74
2021/12/29 02:16:34;;;;;;;10.48;6.28;;;;;;;8.59;87.24;100192.16;5116520;28;20044;-73
2021/12/29 02:19:08;;;;;;;8.75;5.90;;;;;;;8.59;87.34;100197.41;5117722;27;20090;-72
2021/12/29 02:21:37;;;;;;;9.48;5.60;;;;;;;8.58;87.17;100213.19;5105345;27;20049;-74
2021/12/29 02:26:40;;;;;;;10.73;6.22;;;;;;;8.55;87.46;100222.06;5101163;28;20048;-74
2021/12/29 02:29:17;;;;;;;9.57;6.07;;;;;;;8.56;87.38;100218.53;5117662;28;20052;-69
2021/12/29 02:31:46;;;;;;;14.13;6.93;;;;;;;8.57;87.21;100225.50;5115940;27;20058;-72
2021/12/29 02:34:15;;;;;;;11.20;6.72;;;;;;;8.58;87.12;100224.59;5109292;28;20037;-74
2021/12/29 02:36:44;;;;;;;9.23;6.57;;;;;;;8.57;87.10;100224.63;5117234;27;20040;-66
2021/12/29 02:39:20;;;;;;;13.43;7.88;;;;;;;8.54;87.06;100231.72;5112231;27;20533;-73
2021/12/29 02:41:52;;;;;;;13.25;6.68;;;;;;;8.54;87.13;100238.72;5115761;28;20044;-72
2021/12/29 02:44:27;;;;;;;13.63;7.63;;;;;;;8.58;87.03;100242.97;5116469;27;20043;-73
2021/12/29 02:46:56;;;;;;;;;;;;;;;8.55;86.74;100245.69;5108865;27;20044;-68
2021/12/29 02:49:25;;;;;;;14.00;6.68;;;;;;;8.55;87.06;100248.31;5117296;27;19931;-75
2021/12/29 02:51:53;;;;;;;10.63;6.72;;;;;;;8.57;86.78;100249.16;5132379;27;20059;-74
2021/12/29 02:54:20;;;;;;;14.10;7.03;;;;;;;8.57;86.75;100243.00;5117514;27;20044;-73
2021/12/29 02:56:49;;;;;;;14.85;7.88;;;;;;;8.57;86.66;100241.25;5117287;27;20036;-75
2021/12/29 02:59:16;;;;;;;10.85;7.35;;;;;;;8.59;86.68;100242.06;5100084;27;20051;-74
2021/12/29 03:01:44;;;;;;;12.98;7.50;;;;;;;8.60;86.68;100243.78;5117524;27;20075;-75
2021/12/29 03:04:11;;;;;;;12.13;7.88;;;;;;;8.61;86.76;100242.03;5117334;27;20900;-75
2021/12/29 03:06:40;;;;;;;12.05;7.68;;;;;;;8.62;86.47;100246.38;5115209;28;20548;-76
2021/12/29 03:09:12;;;;;;;10.68;8.00;;;;;;;8.63;86.45;100241.06;5115110;27;20138;-77
2021/12/29 03:11:43;;;;;;;13.02;8.15;;;;;;;8.64;86.65;100255.06;5114977;28;20481;-74
2021/12/29 03:14:10;;;;;;;12.10;8.18;;;;;;;8.65;86.32;100262.91;5116454;28;20503;-76
2021/12/29 03:16:38;;;;;;;12.60;8.45;;;;;;;8.65;86.39;100275.16;5114097;28;20040;-75
2021/12/29 03:19:06;;;;;;;11.30;8.25;;;;;;;8.65;86.28;100276.03;5100964;27;20083;-76
2021/12/29 03:21:35;;;;;;;14.57;8.48;;;;;;;8.65;86.46;100278.66;5114873;28;20063;-75
2021/12/29 03:24:03;;;;;;;10.70;7.50;;;;;;;8.66;86.19;100285.63;5101553;28;20438;-71
2021/12/29 03:26:31;;;;;;;11.20;8.00;;;;;;;8.66;86.17;100285.63;5111283;27;20040;-70
2021/12/29 03:28:59;;;;;;;13.23;7.68;;;;;;;8.68;86.10;100299.59;5116287;27;20485;-71
2021/12/29 03:31:30;;;;;;;11.43;7.55;;;;;;;8.67;85.91;100305.75;5115219;28;20482;-70
2021/12/29 03:33:58;;;;;;;10.95;7.40;;;;;;;8.68;85.83;100314.47;5115872;27;20123;-71
2021/12/29 03:36:24;;;;;;;12.82;7.32;;;;;;;8.67;86.02;100305.75;5116239;27;20051;-74
2021/12/29 03:38:51;;;;;;;10.15;7.57;;;;;;;8.67;85.95;100307.50;5116884;27;20044;-72
2021/12/29 03:41:20;;;;;;;10.98;6.78;;;;;;;8.66;85.89;100311.91;5116874;27;20048;-73
2021/12/29 03:43:47;;;;;;;8.52;6.28;;;;;;;8.67;85.78;100316.25;5113589;27;20080;-74
2021/12/29 03:46:16;;;;;;;9.02;6.10;;;;;;;8.66;85.38;100326.81;5116772;27;20469;-74
2021/12/29 03:48:45;;;;;;;8.50;6.75;;;;;;;8.63;85.41;100329.56;5103605;27;20147;-74
2021/12/29 03:51:12;;;;;;;9.52;6.53;;;;;;;8.62;85.55;100333.94;5114063;27;20521;-74
2021/12/29 03:53:40;;;;;;;9.35;5.53;;;;;;;8.62;85.58;100336.56;5114962;28;20055;-68
2021/12/29 03:56:07;;;;;;;11.15;5.82;;;;;;;8.61;85.56;100350.59;5116536;27;20071;-75
2021/12/29 03:58:34;;;;;;;8.90;5.95;;;;;;;8.61;85.41;100344.50;5116099;27;20182;-73
2021/12/29 04:01:07;;;;;;;11.48;5.90;;;;;;;8.62;85.13;100348.84;5115032;27;20045;-73
2021/12/29 04:03:35;;;;;;;7.85;6.03;;;;;;;8.61;85.40;100357.63;5114055;27;20051;-68
2021/12/29 04:06:01;;;;;;;8.98;5.88;;;;;;;8.59;85.47;100352.44;5112136;27;20055;-71
2021/12/29 04:08:29;;;;;;;7.07;5.97;;;;;;;8.60;85.54;100362.00;5109090;28;20051;-72
2021/12/29 04:10:56;;;;;;;9.65;6.28;;;;;;;8.60;85.39;100359.38;5110468;27;20074;-73
2021/12/29 04:13:22;;;;;;;8.88;5.82;;;;;;;8.61;85.62;100363.72;5113961;27;20048;-71
2021/12/29 04:15:50;;;;;;;8.20;6.28;;;;;;;8.61;85.35;100369.00;5116317;27;20425;-78
2021/12/29 04:18:26;;;;;;;9.45;6.18;;;;;;;8.61;85.58;100362.88;5108116;27;20093;-77
2021/12/29 04:21:00;;;;;;;8.52;5.88;;;;;;;8.60;85.64;100369.03;5112214;27;20635;-75
2021/12/29 04:23:31;;;;;;;11.07;6.22;;;;;;;8.58;85.66;100369.09;5115712;28;20106;-72
2021/12/29 04:26:01;;;;;;;9.25;6.32;;;;;;;8.57;85.67;100377.88;5115472;28;20040;-72
2021/12/29 04:28:29;;;;;;;6.75;6.05;;;;;;;8.58;85.68;100386.63;5114739;28;20794;-71
2021/12/29 04:31:06;;;;;;;8.70;6.07;;;;;;;8.55;85.64;100388.41;5113223;28;20068;-68
2021/12/29 04:33:36;;;;;;;7.50;6.03;;;;;;;8.55;85.83;100398.09;5114240;27;20047;-71
2021/12/29 04:36:04;;;;;;;10.13;6.55;;;;;;;8.55;85.86;100398.09;5111414;28;20114;-69
2021/12/29 04:38:31;;;;;;;9.60;6.43;;;;;;;8.57;85.97;100403.28;5105000;27;20052;-71
2021/12/29 04:40:58;;;;;;;9.95;6.93;;;;;;;8.58;86.15;100405.00;5111511;28;20046;-65
2021/12/29 04:43:26;;;;;;;11.52;7.10;;;;;;;8.58;86.06;100410.25;5113921;27;20048;-72
2021/12/29 04:45:54;;;;;;;9.68;7.38;;;;;;;8.57;86.36;100409.41;5108392;27;20052;-72
2021/12/29 04:48:23;;;;;;;9.88;7.97;;;;;;;8.57;86.33;100411.16;5109664;28;20608;-71
2021/12/29 04:50:52;;;;;;;11.75;8.32;;;;;;;8.57;86.33;100414.66;5113602;27;20040;-70
2021/12/29 04:53:22;;;;;;;10.45;8.80;;;;;;;8.58;86.35;100423.41;5103286;28;20064;-69
2021/12/29 04:55:51;;;;;;;10.38;8.80;;;;;;;8.56;86.36;100418.19;5112299;27;20048;-69
2021/12/29 04:58:21;;;;;;;13.48;8.55;;;;;;;8.57;86.58;100427.81;5111593;27;20045;-71
2021/12/29 05:00:51;;;;;;;11.60;9.27;;;;;;;8.55;86.39;100427.84;5113455;27;20453;-75
2021/12/29 05:03:19;;;;;;;16.92;9.32;;;;;;;8.57;86.58;100443.56;5118623;27;20135;-74
2021/12/29 05:08:24;;;;;;;12.48;8.82;;;;;;;8.57;86.47;100440.94;5114304;28;20048;-72
2021/12/29 05:08:43;;;;;;;13.38;9.43;;;;;;;8.58;86.62;100436.53;5116858;28;20511;-69
2021/12/29 05:11:13;;;;;;;12.95;9.30;;;;;;;8.57;86.53;100438.31;5119214;28;20047;-76
2021/12/29 05:13:43;;;;;;;16.95;9.27;;;;;;;8.59;86.72;100440.91;5118312;27;20500;-70
2021/12/29 05:16:11;;;;;;;13.38;9.30;;;;;;;8.60;86.54;100442.63;5118785;27;20055;-76
2021/12/29 05:18:38;;;;;;;12.50;9.35;;;;;;;8.60;86.42;100453.97;5109794;28;20068;-75
2021/12/29 05:21:08;;;;;;;12.13;9.55;;;;;;;8.61;86.52;100452.22;5117743;28;20131;-73
2021/12/29 05:23:36;;;;;;;11.82;9.88;;;;;;;8.60;86.45;100448.72;5118157;27;20123;-73
2021/12/29 05:26:04;;;;;;;11.18;9.48;;;;;;;8.62;86.47;100446.91;5117091;27;20063;-68
2021/12/29 05:28:31;;;;;;;15.98;9.75;;;;;;;8.62;86.36;100446.91;5116617;27;20059;-72
2021/12/29 05:30:58;;;;;;;14.15;9.50;;;;;;;8.62;86.43;100439.03;5108151;28;20063;-73
2021/12/29 05:33:25;;;;;;;12.45;9.32;;;;;;;8.63;86.45;100448.63;5118615;27;20044;-71
2021/12/29 05:35:51;;;;;;;13.88;9.95;;;;;;;8.63;86.43;100440.75;5117948;27;20059;-74
2021/12/29 05:38:19;;;;;;;17.88;10.40;;;;;;;8.64;86.29;100450.38;5106257;27;20051;-71
2021/12/29 05:40:48;;;;;;;12.38;10.20;;;;;;;8.64;86.43;100454.78;5117619;28;20047;-70
2021/12/29 05:43:15;;;;;;;14.40;10.98;;;;;;;8.63;86.47;100460.94;5107722;27;20094;-70
2021/12/29 05:45:42;;;;;;;15.93;11.27;;;;;;;8.62;86.49;100461.84;5110304;27;20487;-69
2021/12/29 05:48:09;;;;;;;16.55;11.25;;;;;;;8.61;86.42;100454.84;5117383;27;20044;-70
2021/12/29 05:50:36;;;;;;;14.23;10.75;;;;;;;8.61;86.49;100463.59;5115475;28;20036;-72
2021/12/29 05:53:03;;;;;;;15.07;10.32;;;;;;;8.61;86.59;100460.97;5114695;28;20051;-71
2021/12/29 05:55:30;;;;;;;14.63;10.20;;;;;;;8.62;86.44;100464.47;5116006;28;20482;-72
2021/12/29 05:57:57;;;;;;;12.63;9.10;;;;;;;8.61;86.37;100463.59;5113947;28;20072;-72
2021/12/29 06:00:26;;;;;;;12.00;9.25;;;;;;;8.62;86.39;100464.47;5109854;28;20094;-71
2021/12/29 06:02:54;;;;;;;13.15;9.45;;;;;;;8.61;86.50;100471.47;5108132;28;20052;-70
2021/12/29 06:05:23;;;;;;;11.52;9.88;;;;;;;8.59;86.38;100465.41;5115010;27;20519;-71
2021/12/29 06:07:50;;;;;;;14.25;10.57;;;;;;;8.58;86.48;100474.19;5113573;28;20091;-72
2021/12/29 06:10:18;;;;;;;14.07;9.75;;;;;;;8.58;86.52;100471.56;5115458;28;20044;-66
2021/12/29 06:12:45;;;;;;;13.43;10.52;;;;;;;8.57;86.42;100480.34;5116573;27;20489;-73
2021/12/29 06:15:12;;;;;;;13.02;10.13;;;;;;;8.55;86.52;100483.00;5116138;27;20517;-72
2021/12/29 06:17:40;;;;;;;14.45;10.88;;;;;;;8.57;86.30;100483.00;5114410;28;20774;-73
2021/12/29 06:20:10;;;;;;;18.23;10.27;;;;;;;8.57;86.46;100488.25;5117402;27;21821;-77
2021/12/29 06:22:38;;;;;;;16.10;10.65;;;;;;;8.56;86.47;100489.16;5112519;27;20059;-64
2021/12/29 06:25:07;;;;;;;16.10;11.15;;;;;;;8.54;86.48;100486.56;5104087;27;20040;-72
2021/12/29 06:27:34;;;;;;;20.00;11.55;;;;;;;8.55;86.62;100500.56;5108293;28;20044;-68
2021/12/29 06:30:00;;;;;;;18.23;12.13;;;;;;;8.54;86.58;100502.34;5103198;28;20048;-69
2021/12/29 06:32:27;;;;;;;21.02;11.60;;;;;;;8.57;86.49;100511.88;5110101;27;20529;-71
2021/12/29 06:34:55;;;;;;;21.52;12.80;;;;;;;8.55;86.36;100511.91;5108987;27;20048;-67
2021/12/29 06:37:24;;;;;;;21.00;13.05;;;;;;;8.56;86.33;100518.03;5113368;28;20051;-68
2021/12/29 06:39:51;;;;;;;23.42;12.80;;;;;;;8.57;86.18;100521.53;5106997;27;20048;-74
2021/12/29 06:42:19;;;;;;;21.33;12.20;;;;;;;8.57;86.34;100532.03;5109975;28;20044;-71
2021/12/29 06:44:47;;;;;;;17.00;12.07;;;;;;;8.55;86.31;100522.41;5112155;27;20053;-71
2021/12/29 06:47:15;;;;;;;18.30;11.85;;;;;;;8.55;86.41;100530.31;5105793;27;20064;-72
2021/12/29 06:49:42;;;;;;;19.42;12.05;;;;;;;8.57;86.06;100538.16;5107979;27;20052;-71
2021/12/29 06:52:11;;;;;;;18.83;12.57;;;;;;;8.55;86.29;100543.44;5108182;28;20048;-76
2021/12/29 06:54:38;;;;;;;19.02;11.85;;;;;;;8.57;86.33;100545.16;5104356;28;20048;-70
2021/12/29 06:57:05;;;;;;;17.33;12.35;;;;;;;8.58;86.47;100553.03;5108395;27;20106;-70
2021/12/29 06:59:33;;;;;;;15.95;11.70;;;;;;;8.58;86.46;100542.53;5112922;28;20527;-68
2021/12/29 07:02:00;;;;;;;17.90;11.68;;;;;;;8.61;86.48;100539.78;5108037;27;20091;-68
2021/12/29 07:04:27;;;;;;;20.95;11.60;;;;;;;8.63;86.29;100545.88;5104225;28;20097;-68
2021/12/29 07:06:55;;;;;;;22.45;11.90;;;;;;;8.67;86.07;100546.66;5110377;28;20051;-67
2021/12/29 07:09:26;;;;;;;17.23;11.00;;;;;;;8.67;85.66;100552.78;5112750;27;20098;-66
2021/12/29 07:11:53;;;;;;;15.82;10.77;;;;;;;8.67;86.02;100555.41;5104677;28;20048;-65
2021/12/29 07:14:21;;;;;;;19.05;11.48;;;;;;;8.71;85.95;100564.06;5113281;27;20555;-67
2021/12/29 07:16:50;;;;;;;20.20;11.23;;;;;;;8.72;85.90;100562.28;5106603;27;20127;-67
2021/12/29 07:19:20;;;;;;;20.63;11.80;;;;;;;8.73;85.93;100570.16;5114127;27;20062;-67
2021/12/29 07:21:49;;;;;;;17.83;10.98;;;;;;;8.73;85.87;100566.66;5114078;27;20490;-66
2021/12/29 07:24:16;;;;;;;17.95;11.05;;;;;;;8.77;85.99;100570.94;5112347;27;20544;-67
2021/12/29 07:26:44;;;;;;;14.55;10.70;;;;;;;8.81;85.72;100570.81;5113120;27;20051;-66
2021/12/29 07:29:11;;;;;;;17.55;10.55;;;;;;;8.86;85.88;100575.94;5113229;27;20064;-65
2021/12/29 07:31:42;;;;;;;18.23;11.18;;;;;;;8.91;85.62;100581.06;5109382;27;20040;-66
2021/12/29 07:34:20;;;;;;;17.75;11.57;;;;;;;8.93;85.52;100585.38;5108664;27;21005;-67
2021/12/29 07:36:47;;;;;;;17.58;11.90;;;;;;;8.96;nan;100593.19;5113389;27;20182;-65
2021/12/29 07:39:14;;;;;;;14.95;10.98;;;;;;;8.96;85.20;100592.28;5112599;27;41667;-66
2021/12/29 07:41:42;;;;;;;17.73;11.23;;;;;;;8.99;84.82;100611.50;5107475;27;20040;-66
2021/12/29 07:44:17;;;;;;;23.55;11.18;;;;;;;8.97;84.80;100613.31;5112285;27;20089;-67
2021/12/29 07:46:48;;;;;;;18.88;11.43;;;;;;;8.96;84.83;100603.69;5113392;27;20058;-67
2021/12/29 07:49:15;;;;;;;19.15;10.88;;;;;;;8.97;84.88;100607.16;5105080;27;20052;-66
2021/12/29 07:51:43;;;;;;;19.73;11.32;;;;;;;8.97;84.68;100613.31;5112168;27;20052;-67
2021/12/29 07:54:14;;;;;;;17.30;11.00;;;;;;;8.96;84.59;100616.84;5114313;27;20047;-66
2021/12/29 07:56:44;;;;;;;20.35;11.55;;;;;;;8.96;84.45;100622.09;5106492;28;20044;-67
2021/12/29 07:59:12;;;;;;;15.50;10.65;;;;;;;8.99;84.58;100621.16;5108860;27;20048;-65
2021/12/29 08:01:41;;;;;;;15.95;10.98;;;;;;;8.99;84.51;100619.41;5113887;27;20047;-64
2021/12/29 08:04:10;;;;;;;12.70;10.32;;;;;;;9.01;84.32;100629.88;5111073;27;20094;-65
2021/12/29 08:06:37;;;;;;;17.60;11.15;;;;;;;9.00;84.37;100622.88;5109857;27;20063;-67
2021/12/29 08:09:06;;;;;;;15.88;10.68;;;;;;;9.00;84.19;100625.50;5103427;28;20044;-67
2021/12/29 08:11:34;;;;;;;17.38;11.27;;;;;;;9.01;83.95;100614.94;5110631;27;20075;-67
2021/12/29 08:14:01;;;;;;;17.27;10.60;;;;;;;8.99;83.91;100608.00;5104883;28;20058;-67
2021/12/29 08:16:28;;;;;;;20.23;10.35;;;;;;;8.99;83.90;100615.88;5111681;28;20044;-67
2021/12/29 08:18:55;;;;;;;15.52;10.48;;;;;;;8.97;84.10;100615.06;5110710;28;20048;-67
2021/12/29 08:21:22;;;;;;;16.63;10.45;;;;;;;8.97;84.12;100615.06;5112603;27;20048;-66
2021/12/29 08:23:49;;;;;;;18.38;10.35;;;;;;;8.96;84.04;100616.84;5113131;27;20048;-67
2021/12/29 08:26:15;;;;;;;17.33;11.77;;;;;;;8.94;84.17;100605.50;5105323;28;20063;-65
2021/12/29 08:28:42;;;;;;;18.17;14.52;;;;;;;8.91;84.15;100607.34;5109540;28;20079;-66
2021/12/29 08:31:11;;;;;;;18.27;12.75;;;;;;;8.88;84.08;100621.44;5112151;28;20058;-65
2021/12/29 08:33:39;;;;;;;19.70;13.43;;;;;;;8.85;84.16;100626.78;5108131;28;20669;-67
2021/12/29 08:36:07;;;;;;;41.53;23.77;;;;;;;8.83;84.24;100621.56;5099219;27;20102;-65
2021/12/29 08:38:35;;;;;;;21.50;13.05;;;;;;;8.81;84.22;100626.00;5105578;27;20052;-67
2021/12/29 08:41:02;;;;;;;19.00;13.52;;;;;;;8.81;84.26;100633.00;5116628;27;20040;-68
2021/12/29 08:43:31;;;;;;;27.85;21.45;;;;;;;8.80;84.27;100641.81;5109883;28;20048;-69
2021/12/29 08:45:59;;;;;;;33.92;21.83;;;;;;;8.79;84.27;100632.22;5106498;28;20075;-69
2021/12/29 08:48:26;;;;;;;18.00;12.00;;;;;;;8.78;84.27;100622.59;5086699;27;20051;-68
2021/12/29 08:50:52;;;;;;;19.15;12.45;;;;;;;8.77;84.26;100626.97;5113801;27;20044;-68
2021/12/29 08:53:19;;;;;;;14.88;9.32;;;;;;;8.76;84.31;100630.50;5104313;28;20060;-68
2021/12/29 08:55:50;;;;;;;14.40;10.75;;;;;;;8.75;84.42;100620.88;5112944;27;20045;-65
2021/12/29 08:58:18;;;;;;;15.85;9.18;;;;;;;8.76;84.44;100627.88;5110681;27;20053;-67
2021/12/29 09:00:45;;;;;;;15.07;10.27;;;;;;;8.77;84.26;100634.84;5104316;28;20044;-66
2021/12/29 09:03:12;;;;;;;17.65;9.75;;;;;;;8.79;84.34;100637.47;5111588;27;20167;-66
2021/12/29 09:05:39;;;;;;;15.43;8.43;;;;;;;8.79;84.41;100633.06;5099855;28;20621;-65
2021/12/29 09:08:06;;;;;;;17.92;9.07;;;;;;;8.80;84.15;100640.03;5114559;28;20094;-64
2021/12/29 09:10:33;;;;;;;15.90;9.90;;;;;;;8.80;84.19;100619.00;5104409;27;20053;-66
2021/12/29 09:13:00;;;;;;;13.88;8.77;;;;;;;8.83;84.18;100620.69;5100136;28;20040;-66
2021/12/29 09:15:27;;;;;;;15.75;7.85;;;;;;;8.84;84.15;100632.94;5108500;28;20391;-71
2021/12/29 09:17:54;;;;;;;15.70;8.55;;;;;;;8.85;84.32;100642.56;5099302;28;20044;-66
2021/12/29 09:20:27;;;;;;;14.48;8.18;;;;;;;8.87;84.01;100648.63;5109979;28;20049;-67
2021/12/29 09:23:07;;;;;;;14.23;7.73;;;;;;;8.88;84.16;100637.22;5112190;28;20043;-65
2021/12/29 09:25:37;;;;;;;12.98;7.88;;;;;;;8.91;84.04;100638.91;5107724;28;20055;-66
2021/12/29 09:28:06;;;;;;;14.98;7.60;;;;;;;8.94;83.77;100630.94;5111921;28;20040;-66
2021/12/29 09:30:36;;;;;;;11.57;7.13;;;;;;;8.98;83.89;100629.94;5113606;27;20052;-70
2021/12/29 09:33:04;;;;;;;24.13;12.30;;;;;;;9.00;83.94;100631.59;5113293;27;20044;-67
2021/12/29 09:35:31;;;;;;;118.93;56.05;;;;;;;9.04;83.99;100636.78;5105986;27;20066;-67
2021/12/29 09:38:05;;;;;;;21.23;11.63;;;;;;;9.06;83.91;100637.63;5108845;28;20056;-70
2021/12/29 09:40:34;;;;;;;15.07;10.48;;;;;;;9.07;83.99;100637.56;5104574;28;20063;-69
2021/12/29 09:43:00;;;;;;;13.98;9.38;;;;;;;9.11;84.00;100633.09;5114980;28;20544;-66
2021/12/29 09:45:27;;;;;;;16.63;8.90;;;;;;;9.14;83.93;100638.28;5111000;27;20529;-70
2021/12/29 09:47:57;;;;;;;16.58;11.52;;;;;;;9.14;83.58;100628.63;5109307;27;20040;-71
2021/12/29 09:50:27;;;;;;;12.15;9.63;;;;;;;9.18;83.68;100611.00;5108510;28;20148;-71
2021/12/29 09:52:56;;;;;;;10.38;7.85;;;;;;;9.20;83.48;100609.19;5105481;27;20517;-67
2021/12/29 09:55:24;;;;;;;13.38;8.35;;;;;;;9.20;83.75;100609.19;5105764;27;20036;-67
2021/12/29 09:57:56;;;;;;;14.00;7.95;;;;;;;9.25;83.71;100616.94;5109586;27;20975;-66
2021/12/29 10:00:33;;;;;;;12.50;9.25;;;;;;;9.26;83.54;100619.53;5111690;27;20056;-65
2021/12/29 10:03:07;;;;;;;12.82;8.05;;;;;;;9.28;83.61;100622.97;5110895;27;20138;-65
2021/12/29 10:05:38;;;;;;;15.55;8.60;;;;;;;9.31;83.43;100633.38;5109818;28;20078;-69
2021/12/29 10:08:13;;;;;;;16.35;12.20;;;;;;;9.34;83.50;100629.84;5100676;28;20132;-67
2021/12/29 10:10:49;;;;;;;14.93;10.13;;;;;;;9.37;83.07;100632.34;5110099;28;20055;-68
2021/12/29 10:13:17;;;;;;;15.45;8.50;;;;;;;9.40;83.00;100621.75;5110496;27;20063;-68
2021/12/29 10:15:54;;;;;;;13.10;9.18;;;;;;;9.43;82.85;100621.69;5102191;28;20044;-67
2021/12/29 10:18:25;;;;;;;16.67;12.10;;;;;;;9.47;82.85;100625.06;5108465;27;20041;-66
2021/12/29 10:21:05;;;;;;;13.73;10.55;;;;;;;9.55;82.76;100622.22;5110702;27;20059;-64
2021/12/29 10:23:42;;;;;;;18.95;12.93;;;;;;;9.59;82.53;100627.34;5105086;27;20072;-70
2021/12/29 10:26:38;;;;;;;12.88;9.65;;;;;;;9.61;82.19;100625.50;5110525;28;20048;-67
2021/12/29 10:29:15;;;;;;;14.27;9.32;;;;;;;9.64;82.45;100629.84;5098562;28;20053;-70
2021/12/29 10:32:02;;;;;;;11.23;8.95;;;;;;;9.68;82.32;100634.09;5103597;28;20063;-69
2021/12/29 10:34:30;;;;;;;11.70;8.38;;;;;;;9.74;82.11;100626.03;5110251;27;20111;-67
2021/12/29 10:37:09;;;;;;;12.88;8.32;;;;;;;9.84;81.93;100628.38;5106366;27;20044;-68
2021/12/29 10:39:49;;;;;;;16.35;8.60;;;;;;;9.88;81.92;100616.81;5108264;28;20044;-68
2021/12/29 10:42:24;;;;;;;12.05;8.45;;;;;;;9.91;81.10;100614.09;5111707;27;20044;-69
2021/12/29 10:44:59;;;;;;;;;;;;;;;9.88;81.15;100599.28;5105473;28;20051;-69
2021/12/29 10:47:38;;;;;;;12.15;7.57;;;;;;;9.88;81.19;100587.88;5108187;28;20294;-69
2021/12/29 10:50:14;;;;;;;11.75;7.63;;;;;;;9.88;81.00;100583.47;5106976;28;20128;-73
2021/12/29 10:53:00;;;;;;;86.88;48.83;;;;;;;9.91;81.19;100587.78;5105225;28;20083;-69
2021/12/29 10:55:31;;;;;;;15.50;11.02;;;;;;;9.92;80.99;100590.34;5104724;28;20032;-68
2021/12/29 10:58:13;;;;;;;13.15;9.70;;;;;;;9.93;81.14;100586.81;5110350;28;20119;-68
2021/12/29 11:00:49;;;;;;;22.85;14.45;;;;;;;9.93;81.17;100599.97;5107030;27;20775;-66
2021/12/29 11:03:23;;;;;;;11.10;9.40;;;;;;;9.94;81.08;100591.16;5122927;27;20454;-71
2021/12/29 11:05:58;;;;;;;9.52;6.75;;;;;;;9.95;81.02;100594.69;5107407;27;20701;-67
2021/12/29 11:08:45;;;;;;;10.05;6.88;;;;;;;9.94;81.10;100599.06;5107863;28;20079;-66
2021/12/29 11:11:12;;;;;;;15.48;7.07;;;;;;;9.97;80.89;100589.34;5109758;28;20055;-69
2021/12/29 11:13:41;;;;;;;12.35;5.93;;;;;;;9.97;80.89;100590.19;5106708;28;20048;-66
2021/12/29 11:16:09;;;;;;;10.85;6.72;;;;;;;10.00;80.61;100594.53;5110332;27;20052;-66
2021/12/29 11:18:50;;;;;;;9.07;6.30;;;;;;;10.01;80.72;100599.75;5106340;27;20132;-65
2021/12/29 11:21:25;;;;;;;8.15;6.40;;;;;;;10.01;80.71;100615.53;5106932;28;20048;-65
2021/12/29 11:23:54;;;;;;;11.27;6.50;;;;;;;10.00;80.64;100620.88;5107676;28;20484;-66
2021/12/29 11:26:32;;;;;;;10.07;6.28;;;;;;;9.99;80.72;100613.88;5104789;28;20066;-67
2021/12/29 11:29:09;;;;;;;9.73;6.10;;;;;;;10.00;80.75;100623.50;5103873;28;20163;-66
2021/12/29 11:31:45;;;;;;;8.77;5.88;;;;;;;10.00;80.63;100616.44;5108638;27;20041;-72
2021/12/29 11:34:26;;;;;;;8.20;6.30;;;;;;;10.01;80.81;100612.91;5106577;27;20490;-66
2021/12/29 11:37:13;;;;;;;11.32;7.57;;;;;;;10.04;80.79;100604.91;5103610;27;20157;-66
2021/12/29 11:39:44;;;;;;;11.07;6.38;;;;;;;10.08;80.80;100613.59;5111426;28;20411;-66
2021/12/29 11:42:11;;;;;;;11.13;6.05;;;;;;;10.10;80.79;100627.56;5096765;27;20433;-66
2021/12/29 11:44:39;;;;;;;11.35;5.72;;;;;;;10.12;80.55;100620.50;5110873;27;20048;-68